sensor_id;sensor_type;location;lat;lon;timestamp;P1;durP1;ratioP1;P2;durP2;ratioP2
65667;SDS011;52369;52.542;13.232;2023-07-09T00:02:12;6.47;;;4.13;;
65667;SDS011;52369;52.542;13.232;2023-07-09T00:04:38;8.35;;;4.10;;
65667;SDS011;52369;52.542;13.232;2023-07-09T00:07:04;6.90;;;4.20;;
65667;SDS011;52369;52.542;13.232;2023-07-09T00:09:30;7.28;;;3.95;;
65667;SDS011;52369;52.542;13.232;2023-07-09T00:11:57;6.75;;;3.88;;
65667;SDS011;52369;52.542;13.232;2023-07-09T00:14:23;7.82;;;4.43;;
65667;SDS011;52369;52.542;13.232;2023-07-09T00:16:49;7.18;;;3.92;;
65667;SDS011;52369;52.542;13.232;2023-07-09T00:19:19;6.45;;;3.80;;
65667;SDS011;52369;52.542;13.232;2023-07-09T00:21:47;7.80;;;4.03;;
65667;SDS011;52369;52.542;13.232;2023-07-09T00:24:14;7.93;;;3.80;;
65667;SDS011;52369;52.542;13.232;2023-07-09T00:26:40;6.60;;;4.20;;
65667;SDS011;52369;52.542;13.232;2023-07-09T00:29:08;6.95;;;3.92;;
65667;SDS011;52369;52.542;13.232;2023-07-09T00:31:34;6.80;;;3.90;;
65667;SDS011;52369;52.542;13.232;2023-07-09T00:34:04;9.05;;;4.00;;
65667;SDS011;52369;52.542;13.232;2023-07-09T00:36:30;5.93;;;3.70;;
65667;SDS011;52369;52.542;13.232;2023-07-09T00:38:57;8.50;;;4.28;;
65667;SDS011;52369;52.542;13.232;2023-07-09T00:43:55;7.75;;;4.30;;
65667;SDS011;52369;52.542;13.232;2023-07-09T00:48:59;7.68;;;4.68;;
65667;SDS011;52369;52.542;13.232;2023-07-09T00:51:26;7.07;;;4.13;;
65667;SDS011;52369;52.542;13.232;2023-07-09T00:53:54;7.05;;;3.90;;
65667;SDS011;52369;52.542;13.232;2023-07-09T00:56:27;5.32;;;3.72;;
65667;SDS011;52369;52.542;13.232;2023-07-09T00:58:54;7.70;;;4.07;;
65667;SDS011;52369;52.542;13.232;2023-07-09T01:01:21;7.55;;;4.30;;
65667;SDS011;52369;52.542;13.232;2023-07-09T01:03:50;7.30;;;3.95;;
65667;SDS011;52369;52.542;13.232;2023-07-09T01:06:18;6.80;;;3.80;;
65667;SDS011;52369;52.542;13.232;2023-07-09T01:08:46;8.10;;;4.10;;
65667;SDS011;52369;52.542;13.232;2023-07-09T01:11:18;7.93;;;4.10;;
65667;SDS011;52369;52.542;13.232;2023-07-09T01:13:49;8.52;;;4.30;;
65667;SDS011;52369;52.542;13.232;2023-07-09T01:16:16;5.50;;;3.85;;
65667;SDS011;52369;52.542;13.232;2023-07-09T01:18:43;6.78;;;4.25;;
65667;SDS011;52369;52.542;13.232;2023-07-09T01:21:09;10.45;;;4.60;;
65667;SDS011;52369;52.542;13.232;2023-07-09T01:23:42;8.13;;;4.50;;
65667;SDS011;52369;52.542;13.232;2023-07-09T01:26:13;7.88;;;4.43;;
65667;SDS011;52369;52.542;13.232;2023-07-09T01:28:39;7.65;;;4.30;;
65667;SDS011;52369;52.542;13.232;2023-07-09T01:31:09;12.55;;;4.93;;
65667;SDS011;52369;52.542;13.232;2023-07-09T01:33:37;7.40;;;4.22;;
65667;SDS011;52369;52.542;13.232;2023-07-09T01:36:05;9.13;;;4.47;;
65667;SDS011;52369;52.542;13.232;2023-07-09T01:38:31;7.05;;;4.45;;
65667;SDS011;52369;52.542;13.232;2023-07-09T01:40:58;8.25;;;4.15;;
65667;SDS011;52369;52.542;13.232;2023-07-09T01:43:25;6.55;;;4.30;;
65667;SDS011;52369;52.542;13.232;2023-07-09T01:45:51;9.30;;;5.03;;
65667;SDS011;52369;52.542;13.232;2023-07-09T01:48:18;7.45;;;4.60;;
65667;SDS011;52369;52.542;13.232;2023-07-09T01:50:45;7.15;;;4.38;;
65667;SDS011;52369;52.542;13.232;2023-07-09T01:53:12;7.28;;;4.53;;
65667;SDS011;52369;52.542;13.232;2023-07-09T01:55:38;7.95;;;4.68;;
65667;SDS011;52369;52.542;13.232;2023-07-09T01:58:05;9.30;;;4.68;;
65667;SDS011;52369;52.542;13.232;2023-07-09T02:00:32;9.68;;;4.90;;
65667;SDS011;52369;52.542;13.232;2023-07-09T02:03:00;8.13;;;4.63;;
65667;SDS011;52369;52.542;13.232;2023-07-09T02:05:27;6.57;;;4.28;;
65667;SDS011;52369;52.542;13.232;2023-07-09T02:07:53;8.35;;;4.70;;
65667;SDS011;52369;52.542;13.232;2023-07-09T02:10:20;7.72;;;4.45;;
65667;SDS011;52369;52.542;13.232;2023-07-09T02:12:46;9.80;;;5.00;;
65667;SDS011;52369;52.542;13.232;2023-07-09T02:15:12;7.20;;;4.93;;
65667;SDS011;52369;52.542;13.232;2023-07-09T02:17:38;9.25;;;5.00;;
65667;SDS011;52369;52.542;13.232;2023-07-09T02:20:05;7.90;;;4.80;;
65667;SDS011;52369;52.542;13.232;2023-07-09T02:22:32;8.30;;;4.70;;
65667;SDS011;52369;52.542;13.232;2023-07-09T02:24:58;9.77;;;4.80;;
65667;SDS011;52369;52.542;13.232;2023-07-09T02:27:25;8.48;;;4.70;;
65667;SDS011;52369;52.542;13.232;2023-07-09T02:29:51;8.15;;;4.45;;
65667;SDS011;52369;52.542;13.232;2023-07-09T02:32:21;8.23;;;4.47;;
65667;SDS011;52369;52.542;13.232;2023-07-09T02:34:47;6.78;;;4.20;;
65667;SDS011;52369;52.542;13.232;2023-07-09T02:37:14;8.52;;;4.60;;
65667;SDS011;52369;52.542;13.232;2023-07-09T02:39:41;8.35;;;4.97;;
65667;SDS011;52369;52.542;13.232;2023-07-09T02:42:08;8.20;;;4.35;;
65667;SDS011;52369;52.542;13.232;2023-07-09T02:44:35;6.95;;;4.28;;
65667;SDS011;52369;52.542;13.232;2023-07-09T02:47:01;7.38;;;4.53;;
65667;SDS011;52369;52.542;13.232;2023-07-09T02:49:27;6.78;;;4.60;;
65667;SDS011;52369;52.542;13.232;2023-07-09T02:51:53;10.13;;;4.82;;
65667;SDS011;52369;52.542;13.232;2023-07-09T02:54:19;9.75;;;5.13;;
65667;SDS011;52369;52.542;13.232;2023-07-09T02:56:45;9.27;;;4.82;;
65667;SDS011;52369;52.542;13.232;2023-07-09T02:59:11;7.78;;;4.78;;
65667;SDS011;52369;52.542;13.232;2023-07-09T03:01:37;7.85;;;4.82;;
65667;SDS011;52369;52.542;13.232;2023-07-09T03:04:03;7.20;;;4.78;;
65667;SDS011;52369;52.542;13.232;2023-07-09T03:06:30;8.25;;;4.53;;
65667;SDS011;52369;52.542;13.232;2023-07-09T03:08:58;10.27;;;4.95;;
65667;SDS011;52369;52.542;13.232;2023-07-09T03:11:24;7.60;;;4.80;;
65667;SDS011;52369;52.542;13.232;2023-07-09T03:13:50;8.43;;;4.97;;
65667;SDS011;52369;52.542;13.232;2023-07-09T03:16:16;7.78;;;5.30;;
65667;SDS011;52369;52.542;13.232;2023-07-09T03:18:44;9.32;;;4.75;;
65667;SDS011;52369;52.542;13.232;2023-07-09T03:21:10;7.68;;;4.70;;
65667;SDS011;52369;52.542;13.232;2023-07-09T03:23:36;8.48;;;5.13;;
65667;SDS011;52369;52.542;13.232;2023-07-09T03:26:03;9.82;;;4.90;;
65667;SDS011;52369;52.542;13.232;2023-07-09T03:28:32;9.52;;;5.22;;
65667;SDS011;52369;52.542;13.232;2023-07-09T03:30:58;6.90;;;4.50;;
65667;SDS011;52369;52.542;13.232;2023-07-09T03:33:24;8.68;;;4.53;;
65667;SDS011;52369;52.542;13.232;2023-07-09T03:35:50;7.90;;;4.72;;
65667;SDS011;52369;52.542;13.232;2023-07-09T03:38:17;9.32;;;5.88;;
65667;SDS011;52369;52.542;13.232;2023-07-09T03:40:43;9.02;;;5.07;;
65667;SDS011;52369;52.542;13.232;2023-07-09T03:43:09;8.35;;;4.80;;
65667;SDS011;52369;52.542;13.232;2023-07-09T03:45:36;7.97;;;4.65;;
65667;SDS011;52369;52.542;13.232;2023-07-09T03:48:03;7.60;;;4.45;;
65667;SDS011;52369;52.542;13.232;2023-07-09T03:50:29;8.80;;;4.68;;
65667;SDS011;52369;52.542;13.232;2023-07-09T03:52:55;8.40;;;4.60;;
65667;SDS011;52369;52.542;13.232;2023-07-09T03:55:21;155.38;;;92.40;;
65667;SDS011;52369;52.542;13.232;2023-07-09T03:57:51;361.23;;;177.32;;
65667;SDS011;52369;52.542;13.232;2023-07-09T04:00:17;251.38;;;106.47;;
65667;SDS011;52369;52.542;13.232;2023-07-09T04:02:43;84.65;;;38.92;;
65667;SDS011;52369;52.542;13.232;2023-07-09T04:05:09;11.13;;;6.78;;
65667;SDS011;52369;52.542;13.232;2023-07-09T04:07:36;8.60;;;5.53;;
65667;SDS011;52369;52.542;13.232;2023-07-09T04:10:02;8.02;;;4.97;;
65667;SDS011;52369;52.542;13.232;2023-07-09T04:12:29;9.95;;;4.75;;
65667;SDS011;52369;52.542;13.232;2023-07-09T04:14:55;9.38;;;5.15;;
65667;SDS011;52369;52.542;13.232;2023-07-09T04:17:21;7.03;;;4.63;;
65667;SDS011;52369;52.542;13.232;2023-07-09T04:19:48;8.40;;;4.60;;
65667;SDS011;52369;52.542;13.232;2023-07-09T04:22:14;6.70;;;4.50;;
65667;SDS011;52369;52.542;13.232;2023-07-09T04:24:40;10.63;;;4.47;;
65667;SDS011;52369;52.542;13.232;2023-07-09T04:27:06;7.28;;;4.78;;
65667;SDS011;52369;52.542;13.232;2023-07-09T04:29:32;9.07;;;5.00;;
65667;SDS011;52369;52.542;13.232;2023-07-09T04:32:04;7.53;;;4.80;;
65667;SDS011;52369;52.542;13.232;2023-07-09T04:34:30;10.02;;;5.10;;
65667;SDS011;52369;52.542;13.232;2023-07-09T04:36:56;8.00;;;4.60;;
65667;SDS011;52369;52.542;13.232;2023-07-09T04:39:22;9.40;;;5.00;;
65667;SDS011;52369;52.542;13.232;2023-07-09T04:41:48;7.32;;;5.28;;
65667;SDS011;52369;52.542;13.232;2023-07-09T04:44:14;6.47;;;4.32;;
65667;SDS011;52369;52.542;13.232;2023-07-09T04:46:40;7.68;;;4.65;;
65667;SDS011;52369;52.542;13.232;2023-07-09T04:49:06;8.10;;;4.93;;
65667;SDS011;52369;52.542;13.232;2023-07-09T04:51:32;7.28;;;4.60;;
65667;SDS011;52369;52.542;13.232;2023-07-09T04:53:59;8.88;;;5.45;;
65667;SDS011;52369;52.542;13.232;2023-07-09T04:56:29;10.40;;;4.90;;
65667;SDS011;52369;52.542;13.232;2023-07-09T04:58:55;11.48;;;5.60;;
65667;SDS011;52369;52.542;13.232;2023-07-09T05:01:21;9.48;;;5.18;;
65667;SDS011;52369;52.542;13.232;2023-07-09T05:03:48;8.93;;;4.72;;
65667;SDS011;52369;52.542;13.232;2023-07-09T05:06:14;7.05;;;4.80;;
65667;SDS011;52369;52.542;13.232;2023-07-09T05:08:40;8.40;;;4.85;;
65667;SDS011;52369;52.542;13.232;2023-07-09T05:11:07;8.27;;;4.65;;
65667;SDS011;52369;52.542;13.232;2023-07-09T05:13:33;8.18;;;4.60;;
65667;SDS011;52369;52.542;13.232;2023-07-09T05:15:59;10.02;;;4.70;;
65667;SDS011;52369;52.542;13.232;2023-07-09T05:18:25;6.38;;;4.50;;
65667;SDS011;52369;52.542;13.232;2023-07-09T05:20:51;8.63;;;4.82;;
65667;SDS011;52369;52.542;13.232;2023-07-09T05:23:17;7.35;;;4.57;;
65667;SDS011;52369;52.542;13.232;2023-07-09T05:25:43;8.95;;;4.32;;
65667;SDS011;52369;52.542;13.232;2023-07-09T05:28:09;6.60;;;4.30;;
65667;SDS011;52369;52.542;13.232;2023-07-09T05:30:35;8.70;;;5.10;;
65667;SDS011;52369;52.542;13.232;2023-07-09T05:33:01;8.00;;;4.72;;
65667;SDS011;52369;52.542;13.232;2023-07-09T05:35:27;7.03;;;4.32;;
65667;SDS011;52369;52.542;13.232;2023-07-09T05:37:54;6.60;;;4.25;;
65667;SDS011;52369;52.542;13.232;2023-07-09T05:40:20;8.68;;;5.07;;
65667;SDS011;52369;52.542;13.232;2023-07-09T05:42:47;10.15;;;5.78;;
65667;SDS011;52369;52.542;13.232;2023-07-09T05:45:14;9.30;;;5.60;;
65667;SDS011;52369;52.542;13.232;2023-07-09T05:47:40;9.07;;;4.60;;
65667;SDS011;52369;52.542;13.232;2023-07-09T05:50:06;10.80;;;6.95;;
65667;SDS011;52369;52.542;13.232;2023-07-09T05:52:32;8.85;;;4.50;;
65667;SDS011;52369;52.542;13.232;2023-07-09T05:54:58;11.07;;;5.25;;
65667;SDS011;52369;52.542;13.232;2023-07-09T05:57:25;44.47;;;18.48;;
65667;SDS011;52369;52.542;13.232;2023-07-09T05:59:51;10.93;;;6.28;;
65667;SDS011;52369;52.542;13.232;2023-07-09T06:02:19;7.10;;;5.03;;
65667;SDS011;52369;52.542;13.232;2023-07-09T06:04:46;13.27;;;7.18;;
65667;SDS011;52369;52.542;13.232;2023-07-09T06:07:14;7.35;;;4.68;;
65667;SDS011;52369;52.542;13.232;2023-07-09T06:09:41;15.05;;;8.55;;
65667;SDS011;52369;52.542;13.232;2023-07-09T06:12:07;6.93;;;4.50;;
65667;SDS011;52369;52.542;13.232;2023-07-09T06:14:33;16.17;;;5.18;;
65667;SDS011;52369;52.542;13.232;2023-07-09T06:17:00;9.73;;;4.65;;
65667;SDS011;52369;52.542;13.232;2023-07-09T06:19:26;10.40;;;5.10;;
65667;SDS011;52369;52.542;13.232;2023-07-09T06:21:52;11.45;;;5.25;;
65667;SDS011;52369;52.542;13.232;2023-07-09T06:24:18;12.20;;;7.65;;
65667;SDS011;52369;52.542;13.232;2023-07-09T06:26:44;9.10;;;5.93;;
65667;SDS011;52369;52.542;13.232;2023-07-09T06:29:10;11.48;;;5.30;;
65667;SDS011;52369;52.542;13.232;2023-07-09T06:31:36;8.02;;;4.68;;
65667;SDS011;52369;52.542;13.232;2023-07-09T06:34:03;7.55;;;4.68;;
65667;SDS011;52369;52.542;13.232;2023-07-09T06:36:29;9.13;;;5.00;;
65667;SDS011;52369;52.542;13.232;2023-07-09T06:38:55;8.10;;;4.85;;
65667;SDS011;52369;52.542;13.232;2023-07-09T06:41:21;10.27;;;5.45;;
65667;SDS011;52369;52.542;13.232;2023-07-09T06:43:48;11.40;;;5.00;;
65667;SDS011;52369;52.542;13.232;2023-07-09T06:46:15;9.27;;;5.57;;
65667;SDS011;52369;52.542;13.232;2023-07-09T06:48:41;8.60;;;4.50;;
65667;SDS011;52369;52.542;13.232;2023-07-09T06:51:07;8.50;;;4.80;;
65667;SDS011;52369;52.542;13.232;2023-07-09T06:53:33;7.57;;;3.72;;
65667;SDS011;52369;52.542;13.232;2023-07-09T06:55:59;6.57;;;4.05;;
65667;SDS011;52369;52.542;13.232;2023-07-09T06:58:26;9.48;;;4.70;;
65667;SDS011;52369;52.542;13.232;2023-07-09T07:00:53;8.98;;;5.00;;
65667;SDS011;52369;52.542;13.232;2023-07-09T07:03:20;6.50;;;3.83;;
65667;SDS011;52369;52.542;13.232;2023-07-09T07:05:46;10.45;;;5.20;;
65667;SDS011;52369;52.542;13.232;2023-07-09T07:08:14;7.47;;;3.83;;
65667;SDS011;52369;52.542;13.232;2023-07-09T07:10:41;8.43;;;4.80;;
65667;SDS011;52369;52.542;13.232;2023-07-09T07:13:07;6.25;;;4.13;;
65667;SDS011;52369;52.542;13.232;2023-07-09T07:15:36;10.57;;;5.38;;
65667;SDS011;52369;52.542;13.232;2023-07-09T07:18:02;10.27;;;5.05;;
65667;SDS011;52369;52.542;13.232;2023-07-09T07:20:29;6.93;;;4.45;;
65667;SDS011;52369;52.542;13.232;2023-07-09T07:22:55;8.45;;;4.78;;
65667;SDS011;52369;52.542;13.232;2023-07-09T07:25:22;8.98;;;4.50;;
65667;SDS011;52369;52.542;13.232;2023-07-09T07:27:48;7.53;;;4.32;;
65667;SDS011;52369;52.542;13.232;2023-07-09T07:30:14;8.30;;;4.20;;
65667;SDS011;52369;52.542;13.232;2023-07-09T07:32:44;7.97;;;4.20;;
65667;SDS011;52369;52.542;13.232;2023-07-09T07:35:11;8.23;;;5.03;;
65667;SDS011;52369;52.542;13.232;2023-07-09T07:37:38;7.55;;;4.80;;
65667;SDS011;52369;52.542;13.232;2023-07-09T07:40:04;9.07;;;4.80;;
65667;SDS011;52369;52.542;13.232;2023-07-09T07:42:30;5.57;;;3.80;;
65667;SDS011;52369;52.542;13.232;2023-07-09T07:44:56;6.18;;;4.15;;
65667;SDS011;52369;52.542;13.232;2023-07-09T07:47:23;8.45;;;4.70;;
65667;SDS011;52369;52.542;13.232;2023-07-09T07:49:49;7.85;;;4.53;;
65667;SDS011;52369;52.542;13.232;2023-07-09T07:52:15;9.07;;;5.10;;
65667;SDS011;52369;52.542;13.232;2023-07-09T07:54:41;11.60;;;4.82;;
65667;SDS011;52369;52.542;13.232;2023-07-09T07:57:07;7.82;;;4.68;;
65667;SDS011;52369;52.542;13.232;2023-07-09T07:59:34;6.05;;;4.28;;
65667;SDS011;52369;52.542;13.232;2023-07-09T08:02:01;7.60;;;4.57;;
65667;SDS011;52369;52.542;13.232;2023-07-09T08:04:27;6.63;;;4.18;;
65667;SDS011;52369;52.542;13.232;2023-07-09T08:06:53;7.03;;;4.55;;
65667;SDS011;52369;52.542;13.232;2023-07-09T08:09:19;7.65;;;4.57;;
65667;SDS011;52369;52.542;13.232;2023-07-09T08:11:45;9.02;;;5.35;;
65667;SDS011;52369;52.542;13.232;2023-07-09T08:14:11;7.85;;;5.10;;
65667;SDS011;52369;52.542;13.232;2023-07-09T08:16:38;7.82;;;4.72;;
65667;SDS011;52369;52.542;13.232;2023-07-09T08:19:04;9.18;;;5.60;;
65667;SDS011;52369;52.542;13.232;2023-07-09T08:21:30;6.43;;;4.32;;
65667;SDS011;52369;52.542;13.232;2023-07-09T08:23:56;8.65;;;4.55;;
65667;SDS011;52369;52.542;13.232;2023-07-09T08:26:22;8.38;;;4.50;;
65667;SDS011;52369;52.542;13.232;2023-07-09T08:28:49;8.13;;;5.10;;
65667;SDS011;52369;52.542;13.232;2023-07-09T08:31:16;7.10;;;4.75;;
65667;SDS011;52369;52.542;13.232;2023-07-09T08:33:42;8.05;;;4.60;;
65667;SDS011;52369;52.542;13.232;2023-07-09T08:36:08;6.15;;;4.20;;
65667;SDS011;52369;52.542;13.232;2023-07-09T08:38:34;5.53;;;4.13;;
65667;SDS011;52369;52.542;13.232;2023-07-09T08:48:37;6.20;;;4.32;;
65667;SDS011;52369;52.542;13.232;2023-07-09T08:53:38;7.47;;;4.65;;
65667;SDS011;52369;52.542;13.232;2023-07-09T08:56:06;6.70;;;4.30;;
65667;SDS011;52369;52.542;13.232;2023-07-09T08:58:34;5.35;;;4.32;;
65667;SDS011;52369;52.542;13.232;2023-07-09T09:01:11;7.88;;;4.43;;
65667;SDS011;52369;52.542;13.232;2023-07-09T09:03:58;10.10;;;5.43;;
65667;SDS011;52369;52.542;13.232;2023-07-09T09:06:27;8.80;;;4.55;;
65667;SDS011;52369;52.542;13.232;2023-07-09T09:09:04;7.10;;;4.78;;
65667;SDS011;52369;52.542;13.232;2023-07-09T09:11:38;8.32;;;4.53;;
65667;SDS011;52369;52.542;13.232;2023-07-09T09:14:27;9.90;;;6.28;;
65667;SDS011;52369;52.542;13.232;2023-07-09T09:16:54;7.70;;;4.57;;
65667;SDS011;52369;52.542;13.232;2023-07-09T09:19:31;5.45;;;4.35;;
65667;SDS011;52369;52.542;13.232;2023-07-09T09:22:10;7.78;;;4.53;;
65667;SDS011;52369;52.542;13.232;2023-07-09T09:27:04;9.88;;;6.20;;
65667;SDS011;52369;52.542;13.232;2023-07-09T09:29:30;7.85;;;4.93;;
65667;SDS011;52369;52.542;13.232;2023-07-09T09:31:57;8.90;;;5.35;;
65667;SDS011;52369;52.542;13.232;2023-07-09T09:34:25;6.53;;;4.07;;
65667;SDS011;52369;52.542;13.232;2023-07-09T09:36:55;8.15;;;4.25;;
65667;SDS011;52369;52.542;13.232;2023-07-09T09:39:23;6.20;;;4.18;;
65667;SDS011;52369;52.542;13.232;2023-07-09T09:41:51;6.90;;;4.25;;
65667;SDS011;52369;52.542;13.232;2023-07-09T09:44:23;5.97;;;4.20;;
65667;SDS011;52369;52.542;13.232;2023-07-09T09:46:50;11.30;;;6.65;;
65667;SDS011;52369;52.542;13.232;2023-07-09T09:49:16;6.60;;;4.18;;
65667;SDS011;52369;52.542;13.232;2023-07-09T09:51:43;8.60;;;4.78;;
65667;SDS011;52369;52.542;13.232;2023-07-09T09:54:17;6.32;;;4.65;;
65667;SDS011;52369;52.542;13.232;2023-07-09T09:56:44;7.22;;;4.22;;
65667;SDS011;52369;52.542;13.232;2023-07-09T09:59:20;5.75;;;4.40;;
65667;SDS011;52369;52.542;13.232;2023-07-09T10:01:47;5.95;;;4.43;;
65667;SDS011;52369;52.542;13.232;2023-07-09T10:04:22;6.75;;;4.60;;
65667;SDS011;52369;52.542;13.232;2023-07-09T10:06:52;7.43;;;4.40;;
65667;SDS011;52369;52.542;13.232;2023-07-09T10:22:35;21.33;;;12.07;;
65667;SDS011;52369;52.542;13.232;2023-07-09T10:27:48;12.15;;;6.70;;
65667;SDS011;52369;52.542;13.232;2023-07-09T10:32:49;7.30;;;4.40;;
65667;SDS011;52369;52.542;13.232;2023-07-09T10:40:09;7.07;;;4.50;;
65667;SDS011;52369;52.542;13.232;2023-07-09T10:42:38;6.28;;;4.70;;
65667;SDS011;52369;52.542;13.232;2023-07-09T10:45:09;5.68;;;4.80;;
65667;SDS011;52369;52.542;13.232;2023-07-09T10:47:47;8.32;;;5.20;;
65667;SDS011;52369;52.542;13.232;2023-07-09T10:50:18;5.65;;;3.97;;
65667;SDS011;52369;52.542;13.232;2023-07-09T10:52:49;7.35;;;4.55;;
65667;SDS011;52369;52.542;13.232;2023-07-09T10:55:19;6.57;;;4.40;;
65667;SDS011;52369;52.542;13.232;2023-07-09T11:00:19;5.38;;;4.32;;
65667;SDS011;52369;52.542;13.232;2023-07-09T11:02:47;8.40;;;4.65;;
65667;SDS011;52369;52.542;13.232;2023-07-09T11:05:13;6.15;;;4.28;;
65667;SDS011;52369;52.542;13.232;2023-07-09T11:07:42;5.80;;;4.35;;
65667;SDS011;52369;52.542;13.232;2023-07-09T11:10:23;13.82;;;8.32;;
65667;SDS011;52369;52.542;13.232;2023-07-09T11:12:59;8.98;;;5.45;;
65667;SDS011;52369;52.542;13.232;2023-07-09T11:15:29;8.15;;;5.50;;
65667;SDS011;52369;52.542;13.232;2023-07-09T11:17:57;8.57;;;5.73;;
65667;SDS011;52369;52.542;13.232;2023-07-09T11:20:25;7.78;;;4.70;;
65667;SDS011;52369;52.542;13.232;2023-07-09T11:22:54;9.73;;;6.10;;
65667;SDS011;52369;52.542;13.232;2023-07-09T11:28:05;6.97;;;4.68;;
65667;SDS011;52369;52.542;13.232;2023-07-09T11:30:32;10.25;;;5.80;;
65667;SDS011;52369;52.542;13.232;2023-07-09T11:32:59;6.60;;;4.85;;
65667;SDS011;52369;52.542;13.232;2023-07-09T11:35:27;6.28;;;4.50;;
65667;SDS011;52369;52.542;13.232;2023-07-09T11:37:53;6.88;;;4.57;;
65667;SDS011;52369;52.542;13.232;2023-07-09T11:40:21;6.60;;;4.53;;
65667;SDS011;52369;52.542;13.232;2023-07-09T11:45:17;7.47;;;5.25;;
65667;SDS011;52369;52.542;13.232;2023-07-09T11:50:28;7.78;;;4.70;;
65667;SDS011;52369;52.542;13.232;2023-07-09T11:52:58;8.57;;;5.38;;
65667;SDS011;52369;52.542;13.232;2023-07-09T11:57:58;6.53;;;4.68;;
65667;SDS011;52369;52.542;13.232;2023-07-09T12:00:25;6.00;;;4.70;;
65667;SDS011;52369;52.542;13.232;2023-07-09T12:02:54;59.83;;;44.75;;
65667;SDS011;52369;52.542;13.232;2023-07-09T12:05:21;17.85;;;12.10;;
65667;SDS011;52369;52.542;13.232;2023-07-09T12:07:47;7.80;;;5.20;;
65667;SDS011;52369;52.542;13.232;2023-07-09T12:10:23;7.25;;;5.00;;
65667;SDS011;52369;52.542;13.232;2023-07-09T12:12:53;10.57;;;6.35;;
65667;SDS011;52369;52.542;13.232;2023-07-09T12:15:21;9.40;;;6.55;;
65667;SDS011;52369;52.542;13.232;2023-07-09T12:17:54;10.55;;;7.10;;
65667;SDS011;52369;52.542;13.232;2023-07-09T12:20:21;7.80;;;5.50;;
65667;SDS011;52369;52.542;13.232;2023-07-09T12:22:47;8.63;;;5.75;;
65667;SDS011;52369;52.542;13.232;2023-07-09T12:25:18;7.25;;;5.18;;
65667;SDS011;52369;52.542;13.232;2023-07-09T12:30:11;7.47;;;4.88;;
65667;SDS011;52369;52.542;13.232;2023-07-09T12:32:44;9.40;;;4.90;;
65667;SDS011;52369;52.542;13.232;2023-07-09T12:35:12;6.22;;;4.35;;
65667;SDS011;52369;52.542;13.232;2023-07-09T12:37:40;7.43;;;4.70;;
65667;SDS011;52369;52.542;13.232;2023-07-09T12:40:14;7.80;;;4.75;;
65667;SDS011;52369;52.542;13.232;2023-07-09T12:42:41;6.93;;;4.80;;
65667;SDS011;52369;52.542;13.232;2023-07-09T12:45:18;8.95;;;5.18;;
65667;SDS011;52369;52.542;13.232;2023-07-09T12:47:47;5.93;;;4.53;;
65667;SDS011;52369;52.542;13.232;2023-07-09T12:52:47;5.78;;;4.72;;
65667;SDS011;52369;52.542;13.232;2023-07-09T12:55:21;9.35;;;5.57;;
65667;SDS011;52369;52.542;13.232;2023-07-09T12:57:47;7.93;;;4.88;;
65667;SDS011;52369;52.542;13.232;2023-07-09T13:00:16;8.63;;;5.47;;
65667;SDS011;52369;52.542;13.232;2023-07-09T13:02:43;13.27;;;8.48;;
65667;SDS011;52369;52.542;13.232;2023-07-09T13:05:19;8.02;;;5.38;;
65667;SDS011;52369;52.542;13.232;2023-07-09T13:07:47;10.48;;;7.15;;
65667;SDS011;52369;52.542;13.232;2023-07-09T13:10:19;8.20;;;5.72;;
65667;SDS011;52369;52.542;13.232;2023-07-09T13:12:50;6.93;;;5.13;;
65667;SDS011;52369;52.542;13.232;2023-07-09T13:17:49;8.32;;;5.60;;
65667;SDS011;52369;52.542;13.232;2023-07-09T13:20:15;9.55;;;5.25;;
65667;SDS011;52369;52.542;13.232;2023-07-09T13:22:42;14.65;;;9.45;;
65667;SDS011;52369;52.542;13.232;2023-07-09T13:25:08;13.75;;;7.38;;
65667;SDS011;52369;52.542;13.232;2023-07-09T13:27:35;7.82;;;5.25;;
65667;SDS011;52369;52.542;13.232;2023-07-09T13:30:01;8.38;;;5.18;;
65667;SDS011;52369;52.542;13.232;2023-07-09T13:32:27;10.48;;;6.72;;
65667;SDS011;52369;52.542;13.232;2023-07-09T13:34:53;9.13;;;5.57;;
65667;SDS011;52369;52.542;13.232;2023-07-09T13:37:19;9.57;;;5.22;;
65667;SDS011;52369;52.542;13.232;2023-07-09T13:39:45;8.10;;;5.70;;
65667;SDS011;52369;52.542;13.232;2023-07-09T13:42:12;6.28;;;4.65;;
65667;SDS011;52369;52.542;13.232;2023-07-09T13:44:39;6.20;;;4.22;;
65667;SDS011;52369;52.542;13.232;2023-07-09T13:47:08;7.95;;;4.93;;
65667;SDS011;52369;52.542;13.232;2023-07-09T13:49:37;22.13;;;13.70;;
65667;SDS011;52369;52.542;13.232;2023-07-09T13:52:04;8.80;;;5.80;;
65667;SDS011;52369;52.542;13.232;2023-07-09T13:54:32;10.10;;;6.00;;
65667;SDS011;52369;52.542;13.232;2023-07-09T13:57:03;9.00;;;5.45;;
65667;SDS011;52369;52.542;13.232;2023-07-09T13:59:29;12.18;;;6.30;;
65667;SDS011;52369;52.542;13.232;2023-07-09T14:01:56;10.07;;;6.70;;
65667;SDS011;52369;52.542;13.232;2023-07-09T14:04:23;7.90;;;5.50;;
65667;SDS011;52369;52.542;13.232;2023-07-09T14:06:50;7.90;;;5.20;;
65667;SDS011;52369;52.542;13.232;2023-07-09T14:09:16;8.15;;;4.90;;
65667;SDS011;52369;52.542;13.232;2023-07-09T14:11:47;8.00;;;5.20;;
65667;SDS011;52369;52.542;13.232;2023-07-09T14:14:16;9.85;;;4.95;;
65667;SDS011;52369;52.542;13.232;2023-07-09T14:16:42;8.60;;;5.70;;
65667;SDS011;52369;52.542;13.232;2023-07-09T14:19:12;8.40;;;5.85;;
65667;SDS011;52369;52.542;13.232;2023-07-09T14:21:39;7.10;;;5.13;;
65667;SDS011;52369;52.542;13.232;2023-07-09T14:24:14;7.68;;;4.95;;
65667;SDS011;52369;52.542;13.232;2023-07-09T14:26:42;7.75;;;4.93;;
65667;SDS011;52369;52.542;13.232;2023-07-09T14:29:08;8.88;;;5.10;;
65667;SDS011;52369;52.542;13.232;2023-07-09T14:31:36;7.80;;;4.85;;
65667;SDS011;52369;52.542;13.232;2023-07-09T14:34:22;8.60;;;5.57;;
65667;SDS011;52369;52.542;13.232;2023-07-09T14:36:49;7.32;;;5.32;;
65667;SDS011;52369;52.542;13.232;2023-07-09T14:39:15;12.07;;;7.35;;
65667;SDS011;52369;52.542;13.232;2023-07-09T14:41:41;7.00;;;4.70;;
65667;SDS011;52369;52.542;13.232;2023-07-09T14:46:42;8.68;;;5.30;;
65667;SDS011;52369;52.542;13.232;2023-07-09T14:49:09;7.05;;;5.15;;
65667;SDS011;52369;52.542;13.232;2023-07-09T14:51:35;7.55;;;4.88;;
65667;SDS011;52369;52.542;13.232;2023-07-09T14:54:01;9.18;;;4.90;;
65667;SDS011;52369;52.542;13.232;2023-07-09T14:56:27;7.35;;;4.97;;
65667;SDS011;52369;52.542;13.232;2023-07-09T14:58:53;8.60;;;4.97;;
65667;SDS011;52369;52.542;13.232;2023-07-09T15:01:19;7.38;;;5.18;;
65667;SDS011;52369;52.542;13.232;2023-07-09T15:03:46;7.97;;;5.38;;
65667;SDS011;52369;52.542;13.232;2023-07-09T15:06:12;9.77;;;5.55;;
65667;SDS011;52369;52.542;13.232;2023-07-09T15:08:38;7.20;;;4.82;;
65667;SDS011;52369;52.542;13.232;2023-07-09T15:11:04;21.70;;;13.73;;
65667;SDS011;52369;52.542;13.232;2023-07-09T15:13:31;10.02;;;6.18;;
65667;SDS011;52369;52.542;13.232;2023-07-09T15:15:58;13.32;;;7.88;;
65667;SDS011;52369;52.542;13.232;2023-07-09T15:18:24;8.65;;;5.63;;
65667;SDS011;52369;52.542;13.232;2023-07-09T15:20:51;9.48;;;5.43;;
65667;SDS011;52369;52.542;13.232;2023-07-09T15:23:18;7.85;;;5.07;;
65667;SDS011;52369;52.542;13.232;2023-07-09T15:25:47;9.60;;;5.78;;
65667;SDS011;52369;52.542;13.232;2023-07-09T15:28:13;7.63;;;5.25;;
65667;SDS011;52369;52.542;13.232;2023-07-09T15:30:40;9.43;;;5.50;;
65667;SDS011;52369;52.542;13.232;2023-07-09T15:33:08;8.48;;;5.60;;
65667;SDS011;52369;52.542;13.232;2023-07-09T15:35:35;8.32;;;5.47;;
65667;SDS011;52369;52.542;13.232;2023-07-09T15:38:05;7.28;;;4.75;;